Terminal Aerodrome Forecast
Issued by NWS Melbourne, FL

Home | Current Version | Previous Version | Text Only | Print | Product List | Glossary On
Versions: 1 2 3 4 5 6 7 8 9 10 11 12 13 14 15 16 17 18 19 20 21 22 23 24
000
FTUS42 KMLB 230718 AAA
TAFMCO
TAF AMD
KMCO 230718Z 2307/2406 08006KT P6SM SCT025 SCT035 BKN250
      TEMPO 2308/2312 BKN025
     FM231400 06008KT P6SM VCSH SCT030 SCT150 BKN250
     FM231800 07012G18KT P6SM VCTS SCT040CB BKN060 BKN250
     FM240000 05009KT P6SM VCSH SCT040 BKN090 BKN250=

USA.gov is the U.S. government's official web portal to all federal, state and local government web resources and services.